QFA596 YWLM-YSSY
Flight info
| Callsign | QFA596 |
|---|---|
| Flight time | N/A |
| Altitude | 16000 |
| Route | MONDO1/12 MONDO BOREE Y50 TESAT |
| Aircraft | B738/M-SDE2E3FGHIRWXY/LB1 |
Departure
| Time | 2026-04-25 04:45 |
|---|---|
| Airport | Newcastle Airport (YWLM) |
Arrival
| Time | N/A |
|---|---|
| Airport | Sydney Kingsford Smith International Airport (YSSY) |
| Time | Latitude | Longitude | Altitude | Speed | Heading |
|---|---|---|---|---|---|
| 2026-04-25 04:44 | -32.97649 | 151.97690 | 9064 ft | 277 kts | 190° |
| 2026-04-25 04:45 | -32.99343 | 151.96799 | 10591 ft | 276 kts | 212° |
| 2026-04-25 04:45 | -33.00657 | 151.95226 | 11990 ft | 266 kts | 233° |
| 2026-04-25 04:45 | -33.01417 | 151.93291 | 13260 ft | 260 kts | 252° |
| 2026-04-25 04:45 | -33.01641 | 151.91226 | 14454 ft | 258 kts | 272° |
| 2026-04-25 04:46 | -33.01230 | 151.89232 | 15455 ft | 247 kts | 296° |
| 2026-04-25 04:46 | -33.00261 | 151.87523 | 15533 ft | 259 kts | 316° |
| 2026-04-25 04:46 | -32.98715 | 151.86150 | 15324 ft | 298 kts | 329° |
| 2026-04-25 04:46 | -32.96888 | 151.84830 | 15287 ft | 313 kts | 329° |
| 2026-04-25 04:47 | -32.95038 | 151.83429 | 15294 ft | 315 kts | 328° |
| 2026-04-25 04:47 | -32.93211 | 151.81972 | 15302 ft | 316 kts | 327° |
| 2026-04-25 04:47 | -32.91406 | 151.80504 | 15306 ft | 315 kts | 327° |
| 2026-04-25 04:47 | -32.89583 | 151.79022 | 15299 ft | 315 kts | 327° |
| 2026-04-25 04:48 | -32.87774 | 151.77563 | 15299 ft | 316 kts | 327° |
| 2026-04-25 04:48 | -32.85979 | 151.76065 | 15295 ft | 316 kts | 323° |
| 2026-04-25 04:48 | -32.84303 | 151.74355 | 15296 ft | 317 kts | 316° |
| 2026-04-25 04:48 | -32.82787 | 151.72427 | 15293 ft | 318 kts | 311° |
| 2026-04-25 04:49 | -32.81369 | 151.70418 | 15289 ft | 317 kts | 309° |
| 2026-04-25 04:49 | -32.80021 | 151.68404 | 15358 ft | 315 kts | 308° |
| 2026-04-25 04:49 | -32.78688 | 151.66313 | 15353 ft | 318 kts | 307° |
| 2026-04-25 04:49 | -32.77381 | 151.64183 | 15323 ft | 318 kts | 306° |
| 2026-04-25 04:50 | -32.76101 | 151.62051 | 15252 ft | 318 kts | 305° |
| 2026-04-25 04:50 | -32.74829 | 151.59907 | 15159 ft | 318 kts | 305° |